sensor_id;sensor_type;location;lat;lon;timestamp;P1;durP1;ratioP1;P2;durP2;ratioP2
46765;SDS011;32527;51.986;5.842;2023-02-17T00:01:24;41.92;;;20.75;;
46765;SDS011;32527;51.986;5.842;2023-02-17T00:03:52;40.15;;;20.20;;
46765;SDS011;32527;51.986;5.842;2023-02-17T00:06:20;50.22;;;22.75;;
46765;SDS011;32527;51.986;5.842;2023-02-17T00:08:48;41.03;;;20.05;;
46765;SDS011;32527;51.986;5.842;2023-02-17T00:11:14;42.75;;;20.60;;
46765;SDS011;32527;51.986;5.842;2023-02-17T00:13:40;43.47;;;22.60;;
46765;SDS011;32527;51.986;5.842;2023-02-17T00:16:20;40.33;;;20.45;;
46765;SDS011;32527;51.986;5.842;2023-02-17T00:18:51;38.90;;;19.88;;
46765;SDS011;32527;51.986;5.842;2023-02-17T00:21:19;37.45;;;19.77;;
46765;SDS011;32527;51.986;5.842;2023-02-17T00:23:47;36.70;;;20.02;;
46765;SDS011;32527;51.986;5.842;2023-02-17T00:26:14;35.70;;;18.65;;
46765;SDS011;32527;51.986;5.842;2023-02-17T00:28:41;37.13;;;20.67;;
46765;SDS011;32527;51.986;5.842;2023-02-17T00:31:08;37.63;;;20.10;;
46765;SDS011;32527;51.986;5.842;2023-02-17T00:33:35;38.35;;;18.85;;
46765;SDS011;32527;51.986;5.842;2023-02-17T00:36:07;33.17;;;18.98;;
46765;SDS011;32527;51.986;5.842;2023-02-17T00:38:37;32.45;;;17.85;;
46765;SDS011;32527;51.986;5.842;2023-02-17T00:41:03;30.27;;;15.80;;
46765;SDS011;32527;51.986;5.842;2023-02-17T00:43:29;30.98;;;17.33;;
46765;SDS011;32527;51.986;5.842;2023-02-17T00:45:55;31.20;;;17.33;;
46765;SDS011;32527;51.986;5.842;2023-02-17T00:48:21;26.90;;;15.27;;
46765;SDS011;32527;51.986;5.842;2023-02-17T00:50:47;28.23;;;15.43;;
46765;SDS011;32527;51.986;5.842;2023-02-17T00:53:13;26.58;;;15.63;;
46765;SDS011;32527;51.986;5.842;2023-02-17T00:55:39;26.73;;;15.85;;
46765;SDS011;32527;51.986;5.842;2023-02-17T00:58:05;24.95;;;15.35;;
46765;SDS011;32527;51.986;5.842;2023-02-17T01:00:30;23.27;;;13.52;;
46765;SDS011;32527;51.986;5.842;2023-02-17T01:02:57;24.85;;;13.70;;
46765;SDS011;32527;51.986;5.842;2023-02-17T01:05:23;25.63;;;14.00;;
46765;SDS011;32527;51.986;5.842;2023-02-17T01:07:49;22.80;;;13.30;;
46765;SDS011;32527;51.986;5.842;2023-02-17T01:10:15;23.35;;;13.85;;
46765;SDS011;32527;51.986;5.842;2023-02-17T01:12:41;26.27;;;14.25;;
46765;SDS011;32527;51.986;5.842;2023-02-17T01:15:07;22.88;;;13.98;;
46765;SDS011;32527;51.986;5.842;2023-02-17T01:17:33;22.48;;;13.23;;
46765;SDS011;32527;51.986;5.842;2023-02-17T01:19:59;24.77;;;14.65;;
46765;SDS011;32527;51.986;5.842;2023-02-17T01:22:25;25.88;;;14.20;;
46765;SDS011;32527;51.986;5.842;2023-02-17T01:24:53;25.90;;;13.80;;
46765;SDS011;32527;51.986;5.842;2023-02-17T01:27:19;22.42;;;13.38;;
46765;SDS011;32527;51.986;5.842;2023-02-17T01:29:46;21.73;;;13.05;;
46765;SDS011;32527;51.986;5.842;2023-02-17T01:32:12;25.73;;;14.88;;
46765;SDS011;32527;51.986;5.842;2023-02-17T01:34:38;24.92;;;15.05;;
46765;SDS011;32527;51.986;5.842;2023-02-17T01:37:05;24.73;;;15.25;;
46765;SDS011;32527;51.986;5.842;2023-02-17T01:39:34;26.95;;;14.75;;
46765;SDS011;32527;51.986;5.842;2023-02-17T01:42:00;28.83;;;15.45;;
46765;SDS011;32527;51.986;5.842;2023-02-17T01:44:29;26.70;;;15.85;;
46765;SDS011;32527;51.986;5.842;2023-02-17T01:46:56;30.77;;;14.85;;
46765;SDS011;32527;51.986;5.842;2023-02-17T01:49:28;26.92;;;15.50;;
46765;SDS011;32527;51.986;5.842;2023-02-17T01:52:10;27.38;;;15.20;;
46765;SDS011;32527;51.986;5.842;2023-02-17T01:54:49;29.67;;;15.65;;
46765;SDS011;32527;51.986;5.842;2023-02-17T01:59:52;26.17;;;14.98;;
46765;SDS011;32527;51.986;5.842;2023-02-17T02:02:37;28.33;;;16.50;;
46765;SDS011;32527;51.986;5.842;2023-02-17T02:05:12;33.75;;;16.55;;
46765;SDS011;32527;51.986;5.842;2023-02-17T02:07:39;31.23;;;17.08;;
46765;SDS011;32527;51.986;5.842;2023-02-17T02:10:07;32.53;;;17.00;;
46765;SDS011;32527;51.986;5.842;2023-02-17T02:12:38;31.35;;;16.48;;
46765;SDS011;32527;51.986;5.842;2023-02-17T02:15:19;38.65;;;18.25;;
46765;SDS011;32527;51.986;5.842;2023-02-17T02:18:02;34.20;;;19.77;;
46765;SDS011;32527;51.986;5.842;2023-02-17T02:21:01;37.95;;;19.73;;
46765;SDS011;32527;51.986;5.842;2023-02-17T02:23:57;42.25;;;20.33;;
46765;SDS011;32527;51.986;5.842;2023-02-17T02:26:53;39.72;;;20.38;;
46765;SDS011;32527;51.986;5.842;2023-02-17T02:29:53;38.78;;;20.25;;
46765;SDS011;32527;51.986;5.842;2023-02-17T02:32:47;39.95;;;20.42;;
46765;SDS011;32527;51.986;5.842;2023-02-17T02:38:24;41.83;;;19.80;;
46765;SDS011;32527;51.986;5.842;2023-02-17T02:41:12;37.97;;;18.42;;
46765;SDS011;32527;51.986;5.842;2023-02-17T02:43:43;41.67;;;19.65;;
46765;SDS011;32527;51.986;5.842;2023-02-17T02:46:09;36.53;;;19.23;;
46765;SDS011;32527;51.986;5.842;2023-02-17T02:48:36;42.38;;;19.95;;
46765;SDS011;32527;51.986;5.842;2023-02-17T02:51:12;39.83;;;19.27;;
46765;SDS011;32527;51.986;5.842;2023-02-17T02:54:18;32.20;;;16.55;;
46765;SDS011;32527;51.986;5.842;2023-02-17T03:04:49;37.75;;;18.90;;
46765;SDS011;32527;51.986;5.842;2023-02-17T03:07:21;36.80;;;18.90;;
46765;SDS011;32527;51.986;5.842;2023-02-17T03:10:02;34.83;;;18.23;;
46765;SDS011;32527;51.986;5.842;2023-02-17T03:12:29;33.10;;;17.65;;
46765;SDS011;32527;51.986;5.842;2023-02-17T03:14:57;30.00;;;17.67;;
46765;SDS011;32527;51.986;5.842;2023-02-17T03:17:29;31.77;;;16.42;;
46765;SDS011;32527;51.986;5.842;2023-02-17T03:19:59;28.15;;;15.80;;
46765;SDS011;32527;51.986;5.842;2023-02-17T03:22:30;31.33;;;16.92;;
46765;SDS011;32527;51.986;5.842;2023-02-17T03:25:06;32.17;;;15.60;;
46765;SDS011;32527;51.986;5.842;2023-02-17T03:27:32;32.15;;;16.38;;
46765;SDS011;32527;51.986;5.842;2023-02-17T03:29:57;26.60;;;14.80;;
46765;SDS011;32527;51.986;5.842;2023-02-17T03:32:23;30.42;;;16.15;;
46765;SDS011;32527;51.986;5.842;2023-02-17T03:34:49;29.00;;;15.00;;
46765;SDS011;32527;51.986;5.842;2023-02-17T03:37:15;31.23;;;15.73;;
46765;SDS011;32527;51.986;5.842;2023-02-17T03:39:40;25.88;;;13.93;;
46765;SDS011;32527;51.986;5.842;2023-02-17T03:42:06;27.88;;;14.75;;
46765;SDS011;32527;51.986;5.842;2023-02-17T03:44:32;26.50;;;14.73;;
46765;SDS011;32527;51.986;5.842;2023-02-17T03:46:58;28.67;;;14.95;;
46765;SDS011;32527;51.986;5.842;2023-02-17T03:49:24;24.90;;;13.90;;
46765;SDS011;32527;51.986;5.842;2023-02-17T03:51:49;26.40;;;13.88;;
46765;SDS011;32527;51.986;5.842;2023-02-17T03:54:15;22.92;;;12.52;;
46765;SDS011;32527;51.986;5.842;2023-02-17T03:56:41;23.40;;;12.93;;
46765;SDS011;32527;51.986;5.842;2023-02-17T03:59:07;25.95;;;12.32;;
46765;SDS011;32527;51.986;5.842;2023-02-17T04:01:32;20.10;;;11.60;;
46765;SDS011;32527;51.986;5.842;2023-02-17T04:03:58;23.45;;;13.27;;
46765;SDS011;32527;51.986;5.842;2023-02-17T04:06:25;27.38;;;13.68;;
46765;SDS011;32527;51.986;5.842;2023-02-17T04:08:51;22.63;;;12.00;;
46765;SDS011;32527;51.986;5.842;2023-02-17T04:11:17;25.90;;;13.30;;
46765;SDS011;32527;51.986;5.842;2023-02-17T04:13:43;22.33;;;12.52;;
46765;SDS011;32527;51.986;5.842;2023-02-17T04:16:08;22.77;;;13.63;;
46765;SDS011;32527;51.986;5.842;2023-02-17T04:18:35;21.63;;;11.82;;
46765;SDS011;32527;51.986;5.842;2023-02-17T04:21:02;22.95;;;12.25;;
46765;SDS011;32527;51.986;5.842;2023-02-17T04:23:28;20.40;;;11.55;;
46765;SDS011;32527;51.986;5.842;2023-02-17T04:25:53;21.15;;;11.18;;
46765;SDS011;32527;51.986;5.842;2023-02-17T04:28:20;20.27;;;11.43;;
46765;SDS011;32527;51.986;5.842;2023-02-17T04:30:46;19.48;;;10.45;;
46765;SDS011;32527;51.986;5.842;2023-02-17T04:33:14;22.20;;;11.93;;
46765;SDS011;32527;51.986;5.842;2023-02-17T04:35:40;25.00;;;12.38;;
46765;SDS011;32527;51.986;5.842;2023-02-17T04:38:07;21.95;;;12.43;;
46765;SDS011;32527;51.986;5.842;2023-02-17T04:40:34;22.05;;;11.95;;
46765;SDS011;32527;51.986;5.842;2023-02-17T04:43:00;19.58;;;11.43;;
46765;SDS011;32527;51.986;5.842;2023-02-17T04:45:26;19.58;;;12.35;;
46765;SDS011;32527;51.986;5.842;2023-02-17T04:47:53;20.88;;;11.63;;
46765;SDS011;32527;51.986;5.842;2023-02-17T04:50:19;24.00;;;12.50;;
46765;SDS011;32527;51.986;5.842;2023-02-17T04:52:45;21.42;;;13.20;;
46765;SDS011;32527;51.986;5.842;2023-02-17T04:55:11;22.63;;;13.18;;
46765;SDS011;32527;51.986;5.842;2023-02-17T04:57:37;23.25;;;13.80;;
46765;SDS011;32527;51.986;5.842;2023-02-17T05:00:03;22.85;;;13.52;;
46765;SDS011;32527;51.986;5.842;2023-02-17T05:02:30;28.58;;;15.20;;
46765;SDS011;32527;51.986;5.842;2023-02-17T05:04:56;28.92;;;16.13;;
46765;SDS011;32527;51.986;5.842;2023-02-17T05:07:22;27.83;;;14.63;;
46765;SDS011;32527;51.986;5.842;2023-02-17T05:09:48;28.92;;;16.48;;
46765;SDS011;32527;51.986;5.842;2023-02-17T05:12:14;27.45;;;15.15;;
46765;SDS011;32527;51.986;5.842;2023-02-17T05:14:41;28.95;;;17.50;;
46765;SDS011;32527;51.986;5.842;2023-02-17T05:17:07;29.50;;;16.70;;
46765;SDS011;32527;51.986;5.842;2023-02-17T05:19:33;32.53;;;18.90;;
46765;SDS011;32527;51.986;5.842;2023-02-17T05:21:59;34.42;;;17.05;;
46765;SDS011;32527;51.986;5.842;2023-02-17T05:24:25;33.05;;;17.08;;
46765;SDS011;32527;51.986;5.842;2023-02-17T05:26:51;31.20;;;17.42;;
46765;SDS011;32527;51.986;5.842;2023-02-17T05:29:17;31.10;;;18.15;;
46765;SDS011;32527;51.986;5.842;2023-02-17T05:31:43;41.72;;;19.08;;
46765;SDS011;32527;51.986;5.842;2023-02-17T05:34:10;37.15;;;17.80;;
46765;SDS011;32527;51.986;5.842;2023-02-17T05:36:37;35.10;;;17.30;;
46765;SDS011;32527;51.986;5.842;2023-02-17T05:39:03;38.22;;;19.80;;
46765;SDS011;32527;51.986;5.842;2023-02-17T05:41:29;33.83;;;18.45;;
46765;SDS011;32527;51.986;5.842;2023-02-17T05:43:54;37.60;;;18.88;;
46765;SDS011;32527;51.986;5.842;2023-02-17T05:46:20;39.85;;;18.98;;
46765;SDS011;32527;51.986;5.842;2023-02-17T05:48:47;35.45;;;17.83;;
46765;SDS011;32527;51.986;5.842;2023-02-17T05:51:14;34.70;;;18.23;;
46765;SDS011;32527;51.986;5.842;2023-02-17T05:53:41;38.83;;;19.00;;
46765;SDS011;32527;51.986;5.842;2023-02-17T05:56:08;38.40;;;18.70;;
46765;SDS011;32527;51.986;5.842;2023-02-17T05:58:34;37.60;;;18.10;;
46765;SDS011;32527;51.986;5.842;2023-02-17T06:01:00;34.67;;;18.90;;
46765;SDS011;32527;51.986;5.842;2023-02-17T06:03:26;39.00;;;19.70;;
46765;SDS011;32527;51.986;5.842;2023-02-17T06:05:52;38.28;;;20.63;;
46765;SDS011;32527;51.986;5.842;2023-02-17T06:08:18;33.88;;;17.98;;
46765;SDS011;32527;51.986;5.842;2023-02-17T06:10:44;35.28;;;19.13;;
46765;SDS011;32527;51.986;5.842;2023-02-17T06:13:10;37.78;;;17.60;;
46765;SDS011;32527;51.986;5.842;2023-02-17T06:15:36;46.45;;;19.05;;
46765;SDS011;32527;51.986;5.842;2023-02-17T06:18:02;31.38;;;17.52;;
46765;SDS011;32527;51.986;5.842;2023-02-17T06:20:28;36.65;;;17.73;;
46765;SDS011;32527;51.986;5.842;2023-02-17T06:22:54;25.33;;;15.75;;
46765;SDS011;32527;51.986;5.842;2023-02-17T06:25:20;32.03;;;16.92;;
46765;SDS011;32527;51.986;5.842;2023-02-17T06:27:46;29.40;;;16.35;;
46765;SDS011;32527;51.986;5.842;2023-02-17T06:30:12;32.42;;;16.67;;
46765;SDS011;32527;51.986;5.842;2023-02-17T06:32:38;33.83;;;16.60;;
46765;SDS011;32527;51.986;5.842;2023-02-17T06:35:04;37.10;;;17.80;;
46765;SDS011;32527;51.986;5.842;2023-02-17T06:37:30;32.80;;;16.92;;
46765;SDS011;32527;51.986;5.842;2023-02-17T06:39:56;33.15;;;17.15;;
46765;SDS011;32527;51.986;5.842;2023-02-17T06:42:22;34.03;;;17.92;;
46765;SDS011;32527;51.986;5.842;2023-02-17T06:44:47;31.00;;;17.27;;
46765;SDS011;32527;51.986;5.842;2023-02-17T06:47:13;31.55;;;17.15;;
46765;SDS011;32527;51.986;5.842;2023-02-17T06:49:39;34.47;;;16.92;;
46765;SDS011;32527;51.986;5.842;2023-02-17T06:52:05;32.30;;;15.70;;
46765;SDS011;32527;51.986;5.842;2023-02-17T06:54:31;29.08;;;15.27;;
46765;SDS011;32527;51.986;5.842;2023-02-17T06:56:57;29.17;;;15.60;;
46765;SDS011;32527;51.986;5.842;2023-02-17T06:59:23;32.88;;;16.83;;
46765;SDS011;32527;51.986;5.842;2023-02-17T07:01:48;31.98;;;15.80;;
46765;SDS011;32527;51.986;5.842;2023-02-17T07:04:15;29.85;;;15.50;;
46765;SDS011;32527;51.986;5.842;2023-02-17T07:06:41;34.78;;;16.70;;
46765;SDS011;32527;51.986;5.842;2023-02-17T07:09:07;33.72;;;17.52;;
46765;SDS011;32527;51.986;5.842;2023-02-17T07:11:35;25.90;;;15.15;;
46765;SDS011;32527;51.986;5.842;2023-02-17T07:14:01;31.30;;;16.90;;
46765;SDS011;32527;51.986;5.842;2023-02-17T07:16:27;29.38;;;15.52;;
46765;SDS011;32527;51.986;5.842;2023-02-17T07:18:53;27.80;;;15.70;;
46765;SDS011;32527;51.986;5.842;2023-02-17T07:21:19;33.80;;;17.55;;
46765;SDS011;32527;51.986;5.842;2023-02-17T07:23:45;36.03;;;16.50;;
46765;SDS011;32527;51.986;5.842;2023-02-17T07:26:12;26.35;;;16.00;;
46765;SDS011;32527;51.986;5.842;2023-02-17T07:28:38;29.17;;;15.40;;
46765;SDS011;32527;51.986;5.842;2023-02-17T07:33:31;29.50;;;16.38;;
46765;SDS011;32527;51.986;5.842;2023-02-17T07:35:57;34.35;;;16.45;;
46765;SDS011;32527;51.986;5.842;2023-02-17T07:38:24;29.50;;;16.17;;
46765;SDS011;32527;51.986;5.842;2023-02-17T07:40:50;36.88;;;15.95;;
46765;SDS011;32527;51.986;5.842;2023-02-17T07:43:16;31.38;;;16.65;;
46765;SDS011;32527;51.986;5.842;2023-02-17T07:45:43;27.13;;;16.80;;
46765;SDS011;32527;51.986;5.842;2023-02-17T07:48:09;28.70;;;15.02;;
46765;SDS011;32527;51.986;5.842;2023-02-17T07:50:35;30.73;;;16.90;;
46765;SDS011;32527;51.986;5.842;2023-02-17T07:53:01;27.55;;;14.90;;
46765;SDS011;32527;51.986;5.842;2023-02-17T07:55:27;31.35;;;15.25;;
46765;SDS011;32527;51.986;5.842;2023-02-17T07:57:53;29.33;;;15.93;;
46765;SDS011;32527;51.986;5.842;2023-02-17T08:00:20;25.40;;;15.00;;
46765;SDS011;32527;51.986;5.842;2023-02-17T08:02:46;28.83;;;16.17;;
46765;SDS011;32527;51.986;5.842;2023-02-17T08:05:12;31.15;;;16.10;;
46765;SDS011;32527;51.986;5.842;2023-02-17T08:07:38;26.13;;;14.88;;
46765;SDS011;32527;51.986;5.842;2023-02-17T08:10:04;26.67;;;14.57;;
46765;SDS011;32527;51.986;5.842;2023-02-17T08:12:51;25.10;;;14.90;;
46765;SDS011;32527;51.986;5.842;2023-02-17T08:15:35;24.25;;;14.40;;
46765;SDS011;32527;51.986;5.842;2023-02-17T08:18:01;23.55;;;13.00;;
46765;SDS011;32527;51.986;5.842;2023-02-17T08:20:29;23.70;;;12.65;;
46765;SDS011;32527;51.986;5.842;2023-02-17T08:22:54;27.55;;;16.05;;
46765;SDS011;32527;51.986;5.842;2023-02-17T08:25:20;20.33;;;12.18;;
46765;SDS011;32527;51.986;5.842;2023-02-17T08:27:46;20.02;;;12.70;;
46765;SDS011;32527;51.986;5.842;2023-02-17T08:30:11;24.25;;;14.52;;
46765;SDS011;32527;51.986;5.842;2023-02-17T08:32:37;20.95;;;12.75;;
46765;SDS011;32527;51.986;5.842;2023-02-17T08:35:03;21.67;;;12.73;;
46765;SDS011;32527;51.986;5.842;2023-02-17T08:37:30;19.83;;;11.68;;
46765;SDS011;32527;51.986;5.842;2023-02-17T08:39:56;22.65;;;12.68;;
46765;SDS011;32527;51.986;5.842;2023-02-17T08:42:26;21.50;;;11.98;;
46765;SDS011;32527;51.986;5.842;2023-02-17T08:44:52;19.92;;;12.30;;
46765;SDS011;32527;51.986;5.842;2023-02-17T08:47:18;22.85;;;12.82;;
46765;SDS011;32527;51.986;5.842;2023-02-17T08:49:44;19.13;;;10.98;;
46765;SDS011;32527;51.986;5.842;2023-02-17T08:52:10;18.70;;;10.98;;
46765;SDS011;32527;51.986;5.842;2023-02-17T08:54:36;20.35;;;10.73;;
46765;SDS011;32527;51.986;5.842;2023-02-17T08:57:02;18.77;;;10.30;;
46765;SDS011;32527;51.986;5.842;2023-02-17T08:59:28;18.27;;;11.23;;
46765;SDS011;32527;51.986;5.842;2023-02-17T09:01:55;15.68;;;10.55;;
46765;SDS011;32527;51.986;5.842;2023-02-17T09:04:21;16.13;;;9.75;;
46765;SDS011;32527;51.986;5.842;2023-02-17T09:06:49;15.60;;;9.85;;
46765;SDS011;32527;51.986;5.842;2023-02-17T09:09:17;16.15;;;10.35;;
46765;SDS011;32527;51.986;5.842;2023-02-17T09:11:46;15.80;;;10.02;;
46765;SDS011;32527;51.986;5.842;2023-02-17T09:14:12;16.15;;;9.05;;
46765;SDS011;32527;51.986;5.842;2023-02-17T09:16:38;15.82;;;9.05;;
46765;SDS011;32527;51.986;5.842;2023-02-17T09:19:04;14.38;;;8.23;;
46765;SDS011;32527;51.986;5.842;2023-02-17T09:21:30;15.05;;;9.25;;
46765;SDS011;32527;51.986;5.842;2023-02-17T09:23:59;14.35;;;8.93;;
46765;SDS011;32527;51.986;5.842;2023-02-17T09:26:25;13.38;;;8.65;;
46765;SDS011;32527;51.986;5.842;2023-02-17T09:28:51;12.65;;;9.15;;
46765;SDS011;32527;51.986;5.842;2023-02-17T09:31:21;12.98;;;8.52;;
46765;SDS011;32527;51.986;5.842;2023-02-17T09:33:49;11.82;;;8.15;;
46765;SDS011;32527;51.986;5.842;2023-02-17T09:36:16;14.25;;;7.72;;
46765;SDS011;32527;51.986;5.842;2023-02-17T09:38:47;13.02;;;8.18;;
46765;SDS011;32527;51.986;5.842;2023-02-17T09:43:50;13.93;;;8.15;;
46765;SDS011;32527;51.986;5.842;2023-02-17T09:46:28;12.27;;;7.55;;
46765;SDS011;32527;51.986;5.842;2023-02-17T09:49:08;12.30;;;8.57;;
46765;SDS011;32527;51.986;5.842;2023-02-17T09:51:41;11.95;;;8.10;;
46765;SDS011;32527;51.986;5.842;2023-02-17T09:54:31;14.75;;;7.97;;
46765;SDS011;32527;51.986;5.842;2023-02-17T09:57:05;12.90;;;7.43;;
46765;SDS011;32527;51.986;5.842;2023-02-17T09:59:51;16.25;;;6.97;;
46765;SDS011;32527;51.986;5.842;2023-02-17T10:05:09;10.38;;;6.85;;
46765;SDS011;32527;51.986;5.842;2023-02-17T10:07:41;12.95;;;7.35;;
46765;SDS011;32527;51.986;5.842;2023-02-17T10:10:17;11.95;;;7.07;;
46765;SDS011;32527;51.986;5.842;2023-02-17T10:12:51;10.48;;;7.13;;
46765;SDS011;32527;51.986;5.842;2023-02-17T10:15:25;11.52;;;6.93;;
46765;SDS011;32527;51.986;5.842;2023-02-17T10:20:40;9.23;;;5.68;;
46765;SDS011;32527;51.986;5.842;2023-02-17T10:23:15;10.88;;;6.30;;
46765;SDS011;32527;51.986;5.842;2023-02-17T10:28:46;10.38;;;6.90;;
46765;SDS011;32527;51.986;5.842;2023-02-17T10:31:19;11.90;;;6.15;;
46765;SDS011;32527;51.986;5.842;2023-02-17T10:33:59;9.60;;;6.20;;
46765;SDS011;32527;51.986;5.842;2023-02-17T10:36:39;11.20;;;6.18;;
46765;SDS011;32527;51.986;5.842;2023-02-17T10:39:14;11.48;;;6.60;;
46765;SDS011;32527;51.986;5.842;2023-02-17T10:41:48;10.18;;;5.93;;
46765;SDS011;32527;51.986;5.842;2023-02-17T10:44:19;11.25;;;6.65;;
46765;SDS011;32527;51.986;5.842;2023-02-17T10:46:47;9.52;;;6.28;;
46765;SDS011;32527;51.986;5.842;2023-02-17T10:49:31;10.25;;;6.50;;
46765;SDS011;32527;51.986;5.842;2023-02-17T10:52:04;9.45;;;6.50;;
46765;SDS011;32527;51.986;5.842;2023-02-17T10:54:38;11.55;;;6.70;;
46765;SDS011;32527;51.986;5.842;2023-02-17T10:57:09;12.98;;;6.35;;
46765;SDS011;32527;51.986;5.842;2023-02-17T10:59:38;10.15;;;6.20;;
46765;SDS011;32527;51.986;5.842;2023-02-17T11:04:45;10.77;;;6.32;;
46765;SDS011;32527;51.986;5.842;2023-02-17T11:07:14;11.35;;;6.88;;
46765;SDS011;32527;51.986;5.842;2023-02-17T11:09:46;10.60;;;5.70;;
46765;SDS011;32527;51.986;5.842;2023-02-17T11:12:15;10.13;;;6.47;;
46765;SDS011;32527;51.986;5.842;2023-02-17T11:14:47;12.32;;;6.50;;
46765;SDS011;32527;51.986;5.842;2023-02-17T11:20:00;16.83;;;7.82;;
46765;SDS011;32527;51.986;5.842;2023-02-17T11:25:22;16.25;;;6.93;;
46765;SDS011;32527;51.986;5.842;2023-02-17T11:27:53;12.25;;;7.68;;
46765;SDS011;32527;51.986;5.842;2023-02-17T11:30:21;12.10;;;6.75;;
46765;SDS011;32527;51.986;5.842;2023-02-17T11:32:48;12.98;;;6.95;;
46765;SDS011;32527;51.986;5.842;2023-02-17T11:35:25;12.25;;;7.43;;
46765;SDS011;32527;51.986;5.842;2023-02-17T11:38:11;13.65;;;7.97;;
46765;SDS011;32527;51.986;5.842;2023-02-17T11:40:50;13.48;;;8.45;;
46765;SDS011;32527;51.986;5.842;2023-02-17T11:43:27;12.18;;;7.68;;
46765;SDS011;32527;51.986;5.842;2023-02-17T11:51:19;14.65;;;7.43;;
46765;SDS011;32527;51.986;5.842;2023-02-17T11:54:14;14.13;;;7.97;;
46765;SDS011;32527;51.986;5.842;2023-02-17T11:56:58;14.38;;;8.00;;
46765;SDS011;32527;51.986;5.842;2023-02-17T11:59:42;13.88;;;7.53;;
46765;SDS011;32527;51.986;5.842;2023-02-17T12:05:32;11.80;;;7.05;;
46765;SDS011;32527;51.986;5.842;2023-02-17T12:08:22;17.70;;;7.65;;
46765;SDS011;32527;51.986;5.842;2023-02-17T12:11:25;12.57;;;7.10;;
46765;SDS011;32527;51.986;5.842;2023-02-17T12:14:17;13.43;;;7.60;;
46765;SDS011;32527;51.986;5.842;2023-02-17T12:16:54;17.52;;;8.05;;
46765;SDS011;32527;51.986;5.842;2023-02-17T12:19:57;12.38;;;7.07;;
46765;SDS011;32527;51.986;5.842;2023-02-17T12:22:32;13.27;;;7.13;;
46765;SDS011;32527;51.986;5.842;2023-02-17T12:35:51;17.55;;;9.85;;
46765;SDS011;32527;51.986;5.842;2023-02-17T12:38:25;11.25;;;7.93;;
46765;SDS011;32527;51.986;5.842;2023-02-17T12:41:01;14.68;;;7.35;;
46765;SDS011;32527;51.986;5.842;2023-02-17T12:43:41;11.38;;;7.97;;
46765;SDS011;32527;51.986;5.842;2023-02-17T12:46:27;15.75;;;8.10;;
46765;SDS011;32527;51.986;5.842;2023-02-17T12:49:01;12.07;;;7.82;;
46765;SDS011;32527;51.986;5.842;2023-02-17T12:54:16;17.35;;;8.70;;
46765;SDS011;32527;51.986;5.842;2023-02-17T12:56:48;16.10;;;8.45;;
46765;SDS011;32527;51.986;5.842;2023-02-17T12:59:44;14.98;;;8.20;;
46765;SDS011;32527;51.986;5.842;2023-02-17T13:02:19;15.32;;;7.18;;
46765;SDS011;32527;51.986;5.842;2023-02-17T13:04:55;16.15;;;9.88;;
46765;SDS011;32527;51.986;5.842;2023-02-17T13:07:44;19.85;;;7.13;;
46765;SDS011;32527;51.986;5.842;2023-02-17T13:10:34;15.63;;;6.63;;
46765;SDS011;32527;51.986;5.842;2023-02-17T13:13:11;13.18;;;6.53;;
46765;SDS011;32527;51.986;5.842;2023-02-17T13:15:59;15.25;;;6.90;;
46765;SDS011;32527;51.986;5.842;2023-02-17T13:18:37;13.80;;;6.03;;
46765;SDS011;32527;51.986;5.842;2023-02-17T13:21:50;14.30;;;7.95;;
46765;SDS011;32527;51.986;5.842;2023-02-17T13:24:04;15.38;;;7.25;;
46765;SDS011;32527;51.986;5.842;2023-02-17T13:26:37;14.50;;;7.95;;
46765;SDS011;32527;51.986;5.842;2023-02-17T13:29:18;16.98;;;7.00;;
46765;SDS011;32527;51.986;5.842;2023-02-17T13:31:49;20.13;;;8.30;;
46765;SDS011;32527;51.986;5.842;2023-02-17T13:36:57;16.58;;;8.25;;
46765;SDS011;32527;51.986;5.842;2023-02-17T13:41:57;21.58;;;7.07;;
46765;SDS011;32527;51.986;5.842;2023-02-17T13:44:31;17.02;;;6.72;;
46765;SDS011;32527;51.986;5.842;2023-02-17T13:47:14;16.58;;;8.07;;
46765;SDS011;32527;51.986;5.842;2023-02-17T13:49:52;15.48;;;6.78;;
46765;SDS011;32527;51.986;5.842;2023-02-17T13:52:25;18.10;;;6.78;;
46765;SDS011;32527;51.986;5.842;2023-02-17T13:54:53;15.65;;;6.88;;
46765;SDS011;32527;51.986;5.842;2023-02-17T13:57:33;23.35;;;7.47;;
46765;SDS011;32527;51.986;5.842;2023-02-17T14:00:19;15.75;;;6.70;;
46765;SDS011;32527;51.986;5.842;2023-02-17T14:05:44;18.98;;;7.10;;
46765;SDS011;32527;51.986;5.842;2023-02-17T14:11:10;13.13;;;6.15;;
46765;SDS011;32527;51.986;5.842;2023-02-17T14:13:38;19.10;;;6.18;;
46765;SDS011;32527;51.986;5.842;2023-02-17T14:16:07;14.10;;;6.28;;
46765;SDS011;32527;51.986;5.842;2023-02-17T14:21:34;12.68;;;6.43;;
46765;SDS011;32527;51.986;5.842;2023-02-17T14:24:04;13.20;;;6.53;;
46765;SDS011;32527;51.986;5.842;2023-02-17T14:29:02;12.38;;;5.95;;
46765;SDS011;32527;51.986;5.842;2023-02-17T14:31:47;12.50;;;6.30;;
46765;SDS011;32527;51.986;5.842;2023-02-17T14:34:31;13.35;;;5.72;;
46765;SDS011;32527;51.986;5.842;2023-02-17T14:40:08;22.20;;;7.55;;
46765;SDS011;32527;51.986;5.842;2023-02-17T14:42:48;13.52;;;6.45;;
46765;SDS011;32527;51.986;5.842;2023-02-17T14:45:15;14.55;;;5.70;;
46765;SDS011;32527;51.986;5.842;2023-02-17T14:47:42;15.27;;;6.25;;
46765;SDS011;32527;51.986;5.842;2023-02-17T14:50:08;16.40;;;5.50;;
46765;SDS011;32527;51.986;5.842;2023-02-17T14:52:37;13.35;;;6.22;;
46765;SDS011;32527;51.986;5.842;2023-02-17T14:55:14;15.32;;;5.88;;
46765;SDS011;32527;51.986;5.842;2023-02-17T14:57:43;17.90;;;5.80;;
46765;SDS011;32527;51.986;5.842;2023-02-17T15:00:10;21.27;;;5.97;;
46765;SDS011;32527;51.986;5.842;2023-02-17T15:02:37;12.15;;;5.30;;
46765;SDS011;32527;51.986;5.842;2023-02-17T15:05:03;12.20;;;5.78;;
46765;SDS011;32527;51.986;5.842;2023-02-17T15:07:29;15.85;;;6.60;;
46765;SDS011;32527;51.986;5.842;2023-02-17T15:09:56;13.35;;;5.93;;
46765;SDS011;32527;51.986;5.842;2023-02-17T15:12:22;13.05;;;5.70;;
46765;SDS011;32527;51.986;5.842;2023-02-17T15:14:48;15.95;;;5.80;;
46765;SDS011;32527;51.986;5.842;2023-02-17T15:17:14;14.70;;;5.82;;
46765;SDS011;32527;51.986;5.842;2023-02-17T15:19:40;12.90;;;5.75;;
46765;SDS011;32527;51.986;5.842;2023-02-17T15:22:09;14.23;;;6.95;;
46765;SDS011;32527;51.986;5.842;2023-02-17T15:24:38;11.73;;;5.25;;
46765;SDS011;32527;51.986;5.842;2023-02-17T15:27:04;16.52;;;5.88;;
46765;SDS011;32527;51.986;5.842;2023-02-17T15:29:30;15.38;;;5.93;;
46765;SDS011;32527;51.986;5.842;2023-02-17T15:31:59;12.80;;;6.38;;
46765;SDS011;32527;51.986;5.842;2023-02-17T15:34:29;17.65;;;6.68;;
46765;SDS011;32527;51.986;5.842;2023-02-17T15:36:56;12.45;;;6.15;;
46765;SDS011;32527;51.986;5.842;2023-02-17T15:39:23;13.48;;;6.93;;
46765;SDS011;32527;51.986;5.842;2023-02-17T15:41:49;10.35;;;5.80;;
46765;SDS011;32527;51.986;5.842;2023-02-17T15:44:18;15.75;;;6.07;;
46765;SDS011;32527;51.986;5.842;2023-02-17T15:46:48;12.02;;;5.55;;
46765;SDS011;32527;51.986;5.842;2023-02-17T15:49:15;12.07;;;6.13;;
46765;SDS011;32527;51.986;5.842;2023-02-17T15:51:41;17.60;;;5.95;;
46765;SDS011;32527;51.986;5.842;2023-02-17T15:54:07;17.70;;;7.00;;
46765;SDS011;32527;51.986;5.842;2023-02-17T15:56:39;18.67;;;6.63;;
46765;SDS011;32527;51.986;5.842;2023-02-17T15:59:23;13.82;;;6.13;;
46765;SDS011;32527;51.986;5.842;2023-02-17T16:01:51;17.30;;;6.75;;